createdAt,value
2019-05-21T00:01:04.112Z,23.70
2019-05-21T00:03:48.465Z,23.80
2019-05-21T00:06:31.173Z,23.80
2019-05-21T00:09:24.176Z,23.80
2019-05-21T00:12:05.356Z,23.80
2019-05-21T00:14:48.930Z,23.90
2019-05-21T00:17:42.359Z,23.90
2019-05-21T00:20:25.453Z,24.00
2019-05-21T00:23:06.164Z,24.20
2019-05-21T00:26:19.953Z,24.10
2019-05-21T00:29:31.140Z,24.10
2019-05-21T00:32:44.604Z,24.10
2019-05-21T00:35:56.180Z,24.00
2019-05-21T00:39:08.813Z,24.00
2019-05-21T00:42:10.976Z,24.00
2019-05-21T00:44:50.736Z,24.40
2019-05-21T00:47:33.020Z,24.10
2019-05-21T00:50:12.137Z,24.00
2019-05-21T00:53:00.290Z,24.00
2019-05-21T00:55:43.996Z,23.90
2019-05-21T00:58:48.668Z,24.10
2019-05-21T01:01:34.691Z,24.10
2019-05-21T01:04:15.495Z,24.10
2019-05-21T01:06:56.391Z,24.20
2019-05-21T01:09:52.326Z,24.30
2019-05-21T01:12:35.603Z,24.30
2019-05-21T01:15:15.745Z,24.70
2019-05-21T01:18:08.708Z,24.60
2019-05-21T01:20:52.137Z,24.60
2019-05-21T01:23:31.712Z,24.50
2019-05-21T01:26:17.080Z,24.30
2019-05-21T01:28:57.518Z,24.40
2019-05-21T01:31:40.586Z,24.40
2019-05-21T01:34:25.913Z,24.40
2019-05-21T01:37:12.778Z,24.30
2019-05-21T01:39:56.232Z,24.70
2019-05-21T01:42:41.327Z,24.90
2019-05-21T01:45:21.830Z,24.90
2019-05-21T01:48:06.990Z,24.80
2019-05-21T01:50:49.378Z,24.70
2019-05-21T01:53:34.821Z,24.70
2019-05-21T01:56:18.750Z,24.60
2019-05-21T01:58:59.745Z,24.60
2019-05-21T02:01:41.361Z,24.60
2019-05-21T02:04:24.628Z,24.70
2019-05-21T02:07:06.303Z,24.60
2019-05-21T02:10:04.304Z,24.60
2019-05-21T02:12:49.465Z,24.60
2019-05-21T02:15:30.374Z,24.50
2019-05-21T02:18:13.078Z,25.00
2019-05-21T02:20:56.314Z,25.00
2019-05-21T02:23:37.863Z,25.00
2019-05-21T02:26:19.003Z,24.90
2019-05-21T02:29:00.751Z,24.80
2019-05-21T02:31:42.759Z,24.90
2019-05-21T02:34:25.494Z,24.90
2019-05-21T02:37:08.850Z,24.90
2019-05-21T02:39:49.287Z,25.00
2019-05-21T02:42:31.884Z,24.90
2019-05-21T02:45:12.058Z,24.80
2019-05-21T02:47:54.487Z,24.90
2019-05-21T02:50:35.029Z,24.90
2019-05-21T02:53:15.828Z,25.00
2019-05-21T02:55:57.164Z,25.10
2019-05-21T02:58:39.999Z,25.10
2019-05-21T03:01:38.681Z,25.10
2019-05-21T03:04:20.912Z,25.10
2019-05-21T03:07:23.334Z,25.20
2019-05-21T03:10:04.745Z,25.20
2019-05-21T03:12:48.509Z,25.20
2019-05-21T03:15:30.029Z,25.20
2019-05-21T03:18:11.885Z,25.30
2019-05-21T03:20:54.412Z,25.40
2019-05-21T03:23:35.595Z,25.40
2019-05-21T03:26:15.553Z,25.40
2019-05-21T03:28:58.315Z,25.40
2019-05-21T03:31:38.542Z,25.40
2019-05-21T03:34:22.608Z,25.50
2019-05-21T03:37:06.356Z,25.60
2019-05-21T03:39:51.961Z,25.60
2019-05-21T03:42:41.651Z,25.60
2019-05-21T03:45:23.704Z,25.60
2019-05-21T03:48:04.611Z,25.60
2019-05-21T03:50:51.135Z,25.80
2019-05-21T03:53:33.633Z,26.10
2019-05-21T03:56:17.934Z,26.10
2019-05-21T03:59:00.552Z,26.10
2019-05-21T04:01:44.070Z,26.00
2019-05-21T04:04:25.987Z,26.10
2019-05-21T04:07:09.015Z,26.10
2019-05-21T04:09:51.956Z,26.10
2019-05-21T04:12:43.601Z,26.10
2019-05-21T04:15:24.109Z,26.10
2019-05-21T04:18:10.986Z,26.10
2019-05-21T04:20:54.294Z,26.20
2019-05-21T04:23:37.479Z,26.30
2019-05-21T04:26:16.540Z,26.40
2019-05-21T04:29:01.231Z,26.50
2019-05-21T04:31:49.417Z,26.60
2019-05-21T04:34:32.106Z,26.60
2019-05-21T04:37:17.256Z,26.60
2019-05-21T04:40:01.711Z,26.70
2019-05-21T04:42:51.274Z,26.60
2019-05-21T04:45:33.562Z,26.60
2019-05-21T04:48:18.445Z,26.60
2019-05-21T04:51:03.068Z,26.60
2019-05-21T04:53:55.658Z,26.60
2019-05-21T04:56:38.671Z,26.80
2019-05-21T04:59:24.630Z,26.90
2019-05-21T05:02:13.760Z,26.80
2019-05-21T05:04:58.241Z,26.80
2019-05-21T05:07:43.143Z,26.90
2019-05-21T05:10:33.382Z,26.90
2019-05-21T05:13:13.399Z,26.90
2019-05-21T05:16:03.903Z,26.90
2019-05-21T05:18:45.581Z,26.90
2019-05-21T05:21:32.306Z,27.20
2019-05-21T05:24:15.312Z,27.10
2019-05-21T05:27:00.690Z,27.20
2019-05-21T05:29:43.176Z,27.10
2019-05-21T05:32:27.814Z,27.10
2019-05-21T05:35:14.156Z,27.10
2019-05-21T05:37:53.225Z,27.10
2019-05-21T05:40:35.696Z,27.10
2019-05-21T05:43:16.471Z,27.20
2019-05-21T05:45:58.586Z,27.20
2019-05-21T05:48:48.642Z,27.20
2019-05-21T05:51:33.742Z,27.30
2019-05-21T05:54:14.544Z,27.20
2019-05-21T05:56:56.055Z,27.20
2019-05-21T05:59:38.101Z,27.60
2019-05-21T06:02:21.124Z,27.60
2019-05-21T06:05:13.497Z,27.60
2019-05-21T06:07:59.920Z,27.50
2019-05-21T06:10:40.117Z,27.40
2019-05-21T06:13:20.905Z,27.40
2019-05-21T06:16:01.664Z,27.60
2019-05-21T06:18:45.977Z,27.60
2019-05-21T06:21:29.017Z,27.60
2019-05-21T06:24:13.503Z,27.50
2019-05-21T06:26:53.477Z,27.60
2019-05-21T06:29:39.198Z,27.70
2019-05-21T06:32:18.502Z,27.70
2019-05-21T06:35:01.363Z,27.60
2019-05-21T06:37:45.551Z,27.60
2019-05-21T06:40:31.059Z,27.50
2019-05-21T06:43:12.406Z,27.50
2019-05-21T06:45:53.945Z,27.50
2019-05-21T06:48:35.016Z,27.50
2019-05-21T06:51:21.421Z,27.80
2019-05-21T06:54:03.414Z,27.80
2019-05-21T06:56:44.582Z,27.80
2019-05-21T06:59:24.626Z,27.90
2019-05-21T07:02:05.384Z,28.10
2019-05-21T07:04:44.271Z,28.30
2019-05-21T07:07:28.655Z,28.60
2019-05-21T07:10:09.917Z,28.50
2019-05-21T07:12:56.214Z,28.40
2019-05-21T07:15:38.784Z,28.60
2019-05-21T07:18:22.166Z,28.40
2019-05-21T07:21:07.368Z,28.40
2019-05-21T07:23:51.870Z,28.30
2019-05-21T07:26:30.672Z,28.10
2019-05-21T07:29:15.979Z,28.00
2019-05-21T07:31:55.753Z,28.00
2019-05-21T07:34:36.063Z,28.30
2019-05-21T07:37:19.644Z,28.40
2019-05-21T07:40:02.168Z,28.40
2019-05-21T07:42:44.119Z,28.40
2019-05-21T07:45:23.994Z,28.50
2019-05-21T07:48:09.087Z,28.50
2019-05-21T07:50:56.488Z,28.60
2019-05-21T07:53:39.768Z,28.60
2019-05-21T07:56:23.259Z,28.70
2019-05-21T07:59:08.500Z,28.90
2019-05-21T08:01:51.886Z,29.10
2019-05-21T08:04:34.400Z,29.20
2019-05-21T08:07:14.271Z,29.30
2019-05-21T08:09:58.511Z,29.40
2019-05-21T08:12:39.842Z,29.30
2019-05-21T08:15:22.817Z,29.20
2019-05-21T08:18:04.414Z,29.20
2019-05-21T08:20:42.775Z,29.10
2019-05-21T08:23:30.527Z,29.10
2019-05-21T08:26:11.599Z,29.10
2019-05-21T08:28:53.370Z,29.00
2019-05-21T08:31:36.021Z,29.00
2019-05-21T08:34:15.911Z,29.10
2019-05-21T08:36:57.140Z,29.10
2019-05-21T08:39:40.439Z,29.10
2019-05-21T08:42:22.415Z,29.20
2019-05-21T08:45:06.219Z,29.20
2019-05-21T08:47:48.963Z,29.10
2019-05-21T08:50:30.043Z,29.30
2019-05-21T08:53:13.996Z,29.50
2019-05-21T08:55:56.663Z,29.50
2019-05-21T08:58:41.198Z,29.40
2019-05-21T09:01:21.683Z,29.30
2019-05-21T09:04:05.830Z,29.10
2019-05-21T09:06:48.679Z,29.00
2019-05-21T09:09:47.918Z,28.80
2019-05-21T09:12:13.878Z,28.70
2019-05-21T09:14:54.574Z,28.80
2019-05-21T09:17:38.361Z,28.70
2019-05-21T09:20:20.870Z,28.70
2019-05-21T09:23:04.177Z,28.60
2019-05-21T09:25:44.006Z,28.80
2019-05-21T09:28:29.308Z,28.90
2019-05-21T09:31:11.019Z,29.10
2019-05-21T09:33:56.763Z,29.30
2019-05-21T09:36:38.872Z,29.40
2019-05-21T09:39:17.770Z,29.50
2019-05-21T09:42:01.730Z,29.60
2019-05-21T09:44:42.756Z,29.60
2019-05-21T09:47:23.107Z,29.60
2019-05-21T09:50:04.222Z,29.50
2019-05-21T09:52:44.109Z,29.50
2019-05-21T09:55:24.500Z,29.50
2019-05-21T09:58:22.854Z,29.80
2019-05-21T10:01:19.984Z,29.70
2019-05-21T10:04:03.583Z,29.60
2019-05-21T10:06:44.739Z,29.90
2019-05-21T10:09:24.848Z,29.80
2019-05-21T10:12:08.545Z,29.70
2019-05-21T10:14:55.104Z,29.60
2019-05-21T10:17:39.770Z,29.50
2019-05-21T10:20:22.369Z,29.50
2019-05-21T10:23:07.423Z,29.50
2019-05-21T10:25:52.045Z,29.60
2019-05-21T10:28:35.582Z,29.60
2019-05-21T10:31:15.009Z,29.60
2019-05-21T10:34:00.699Z,29.60
2019-05-21T10:36:40.008Z,29.50
2019-05-21T10:39:24.148Z,29.40
2019-05-21T10:42:08.819Z,29.20
2019-05-21T10:44:50.514Z,29.10
2019-05-21T10:47:30.835Z,28.90
2019-05-21T10:50:09.995Z,28.90
2019-05-21T10:56:12.335Z,28.70
2019-05-21T10:58:57.406Z,28.90
2019-05-21T11:01:52.902Z,28.70
2019-05-21T11:04:42.625Z,28.50
2019-05-21T11:07:22.460Z,28.40
2019-05-21T11:10:02.855Z,28.20
2019-05-21T11:12:44.228Z,28.20
2019-05-21T11:15:26.993Z,28.00
2019-05-21T11:18:11.025Z,28.00
2019-05-21T11:20:52.562Z,28.00
2019-05-21T11:23:37.761Z,28.30
2019-05-21T11:26:20.608Z,28.20
2019-05-21T11:29:02.484Z,27.90
2019-05-21T11:31:56.561Z,27.80
2019-05-21T11:34:31.236Z,27.80
2019-05-21T11:37:11.464Z,27.80
2019-05-21T11:39:52.708Z,27.80
2019-05-21T11:42:33.063Z,27.60
2019-05-21T11:45:31.054Z,27.60
2019-05-21T11:48:01.075Z,27.60
2019-05-21T11:50:41.615Z,27.60
2019-05-21T11:53:22.572Z,27.50
2019-05-21T11:56:06.334Z,27.50
2019-05-21T11:59:00.728Z,27.50
2019-05-21T12:01:42.473Z,27.50
2019-05-21T12:04:24.636Z,27.40
2019-05-21T12:07:15.172Z,27.40
2019-05-21T12:10:15.868Z,27.40
2019-05-21T12:12:59.787Z,27.30
2019-05-21T12:15:41.012Z,27.50
2019-05-21T12:18:24.331Z,27.40
2019-05-21T12:21:08.845Z,27.40
2019-05-21T12:23:53.970Z,27.60
2019-05-21T12:26:34.798Z,27.50
2019-05-21T12:29:20.054Z,27.40
2019-05-21T12:32:04.433Z,27.40
2019-05-21T12:34:46.447Z,27.30
2019-05-21T12:37:29.227Z,27.30
2019-05-21T12:40:11.923Z,27.20
2019-05-21T12:42:57.950Z,27.40
2019-05-21T12:45:45.027Z,27.40
2019-05-21T12:48:30.351Z,27.30
2019-05-21T12:51:09.914Z,27.20
2019-05-21T12:53:55.503Z,27.20
2019-05-21T12:56:43.283Z,27.10
2019-05-21T12:59:29.363Z,27.00
2019-05-21T13:02:15.409Z,27.00
2019-05-21T13:04:58.093Z,27.10
2019-05-21T13:07:40.629Z,27.50
2019-05-21T13:10:26.816Z,27.40
2019-05-21T13:13:07.219Z,27.20
2019-05-21T13:15:50.318Z,27.10
2019-05-21T13:18:32.037Z,27.00
2019-05-21T13:21:26.292Z,26.90
2019-05-21T13:24:10.473Z,27.20
2019-05-21T13:26:58.512Z,27.20
2019-05-21T13:29:46.785Z,27.10
2019-05-21T13:32:29.406Z,27.50
2019-05-21T13:35:13.936Z,27.30
2019-05-21T13:37:56.144Z,27.10
2019-05-21T13:40:44.153Z,26.90
2019-05-21T13:43:30.737Z,26.90
2019-05-21T13:46:27.447Z,26.80
2019-05-21T13:49:11.562Z,27.00
2019-05-21T13:52:02.919Z,26.90
2019-05-21T13:55:06.923Z,26.80
2019-05-21T13:58:01.160Z,27.20
2019-05-21T14:00:56.090Z,27.00
2019-05-21T14:03:53.601Z,26.80
2019-05-21T14:06:39.049Z,26.70
2019-05-21T14:09:28.679Z,26.60
2019-05-21T14:12:15.045Z,26.60
2019-05-21T14:15:07.384Z,26.90
2019-05-21T14:17:51.463Z,26.70
2019-05-21T14:20:54.748Z,26.60
2019-05-21T14:23:40.019Z,26.60
2019-05-21T14:26:24.401Z,26.50
2019-05-21T14:29:10.104Z,26.40
2019-05-21T14:32:02.298Z,26.30
2019-05-21T14:35:00.904Z,26.20
2019-05-21T14:37:43.104Z,26.20
2019-05-21T14:40:31.730Z,26.60
2019-05-21T14:43:19.369Z,26.50
2019-05-21T14:46:00.591Z,26.40
2019-05-21T14:48:47.260Z,26.40
2019-05-21T14:51:32.045Z,26.30
2019-05-21T14:54:28.928Z,26.30
2019-05-21T14:57:23.692Z,26.20
2019-05-21T15:00:13.722Z,26.10
2019-05-21T15:03:05.041Z,26.20
2019-05-21T15:05:50.553Z,26.10
2019-05-21T15:08:40.239Z,26.20
2019-05-21T15:11:23.927Z,26.30
2019-05-21T15:14:16.480Z,26.20
2019-05-21T15:17:15.019Z,26.20
2019-05-21T15:20:00.293Z,26.20
2019-05-21T15:22:46.173Z,26.10
2019-05-21T15:25:39.675Z,26.10
2019-05-21T15:28:25.814Z,26.10
2019-05-21T15:31:15.220Z,26.10
2019-05-21T15:34:06.683Z,26.10
2019-05-21T15:37:00.057Z,26.20
2019-05-21T15:39:47.239Z,26.10
2019-05-21T15:42:38.939Z,26.10
2019-05-21T15:45:33.732Z,26.00
2019-05-21T15:48:18.040Z,26.00
2019-05-21T15:51:05.151Z,26.00
2019-05-21T15:53:47.994Z,25.90
2019-05-21T15:56:31.947Z,25.90
2019-05-21T15:59:17.582Z,25.90
2019-05-21T16:02:18.625Z,26.00
2019-05-21T16:05:14.604Z,26.00
2019-05-21T16:08:04.854Z,25.90
2019-05-21T16:10:58.696Z,25.80
2019-05-21T16:13:48.335Z,25.80
2019-05-21T16:16:35.914Z,25.90
2019-05-21T16:19:25.148Z,25.90
2019-05-21T16:22:13.556Z,25.90
2019-05-21T16:25:07.476Z,25.90
2019-05-21T16:27:50.859Z,26.00
2019-05-21T16:30:33.517Z,25.90
2019-05-21T16:33:19.912Z,25.90
2019-05-21T16:36:04.256Z,25.80
2019-05-21T16:38:51.552Z,25.80
2019-05-21T16:41:44.608Z,25.80
2019-05-21T16:44:19.798Z,25.70
2019-05-21T16:47:03.845Z,26.00
2019-05-21T16:49:45.713Z,26.00
2019-05-21T16:52:46.082Z,26.00
2019-05-21T16:55:29.714Z,25.90
2019-05-21T16:58:12.136Z,25.90
2019-05-21T17:00:57.748Z,25.90
2019-05-21T17:03:41.003Z,25.80
2019-05-21T17:06:24.463Z,25.70
2019-05-21T17:09:23.245Z,25.70
2019-05-21T17:12:08.934Z,25.60
2019-05-21T17:14:55.366Z,25.60
2019-05-21T17:17:37.576Z,25.80
2019-05-21T17:20:17.611Z,25.70
2019-05-21T17:22:56.424Z,25.70
2019-05-21T17:25:38.925Z,25.70
2019-05-21T17:28:20.975Z,25.60
2019-05-21T17:31:09.266Z,25.60
2019-05-21T17:33:49.758Z,25.60
2019-05-21T17:36:36.266Z,25.50
2019-05-21T17:39:19.909Z,25.50
2019-05-21T17:42:15.186Z,25.50
2019-05-21T17:44:56.968Z,25.40
2019-05-21T17:47:36.492Z,25.40
2019-05-21T17:50:19.517Z,25.40
2019-05-21T17:53:03.053Z,25.40
2019-05-21T17:55:45.040Z,25.40
2019-05-21T17:58:30.075Z,25.40
2019-05-21T18:01:12.116Z,25.50
2019-05-21T18:03:55.081Z,25.50
2019-05-21T18:06:37.013Z,25.40
2019-05-21T18:09:21.524Z,25.80
2019-05-21T18:12:04.929Z,25.70
2019-05-21T18:14:48.345Z,25.60
2019-05-21T18:17:30.416Z,25.50
2019-05-21T18:20:10.910Z,25.50
2019-05-21T18:22:52.952Z,25.40
2019-05-21T18:25:35.141Z,25.40
2019-05-21T18:28:19.212Z,25.40
2019-05-21T18:31:00.760Z,25.30
2019-05-21T18:33:41.999Z,25.40
2019-05-21T18:36:25.746Z,25.40
2019-05-21T18:39:08.051Z,25.40
2019-05-21T18:41:52.716Z,25.40
2019-05-21T18:44:34.424Z,25.30
2019-05-21T18:47:19.163Z,25.30
2019-05-21T18:50:04.075Z,25.30
2019-05-21T18:52:49.288Z,25.30
2019-05-21T18:55:33.407Z,25.30
2019-05-21T18:58:17.850Z,25.30
2019-05-21T19:01:01.110Z,25.60
2019-05-21T19:03:44.709Z,25.50
2019-05-21T19:06:27.138Z,25.40
2019-05-21T19:09:09.220Z,25.30
2019-05-21T19:11:49.571Z,25.30
2019-05-21T19:14:34.767Z,25.20
2019-05-21T19:17:34.733Z,25.20
2019-05-21T19:20:07.900Z,25.30
2019-05-21T19:22:47.586Z,25.30
2019-05-21T19:25:31.375Z,25.20
2019-05-21T19:28:15.390Z,25.60
2019-05-21T19:31:02.871Z,25.40
2019-05-21T19:33:44.771Z,25.30
2019-05-21T19:36:26.319Z,25.20
2019-05-21T19:39:08.316Z,25.20
2019-05-21T19:41:50.484Z,25.20
2019-05-21T19:44:30.395Z,25.20
2019-05-21T19:47:14.560Z,25.20
2019-05-21T19:49:58.387Z,25.10
2019-05-21T19:52:39.895Z,25.10
2019-05-21T19:55:19.172Z,25.40
2019-05-21T19:58:03.024Z,25.30
2019-05-21T20:00:55.030Z,25.20
2019-05-21T20:03:39.343Z,25.20
2019-05-21T20:06:26.475Z,25.10
2019-05-21T20:09:11.168Z,25.10
2019-05-21T20:11:53.667Z,25.10
2019-05-21T20:14:36.078Z,25.00
2019-05-21T20:17:18.761Z,25.00
2019-05-21T20:20:04.716Z,25.00
2019-05-21T20:22:46.404Z,25.40
2019-05-21T20:25:28.864Z,25.30
2019-05-21T20:28:12.049Z,25.20
2019-05-21T20:30:57.320Z,25.10
2019-05-21T20:33:40.433Z,25.10
2019-05-21T20:36:25.026Z,25.10
2019-05-21T20:39:12.189Z,25.00
2019-05-21T20:41:52.975Z,25.00
2019-05-21T20:44:35.893Z,25.00
2019-05-21T20:47:20.432Z,25.00
2019-05-21T20:50:02.991Z,25.20
2019-05-21T20:52:47.696Z,25.10
2019-05-21T20:55:27.738Z,25.00
2019-05-21T20:58:12.226Z,24.90
2019-05-21T21:01:02.542Z,24.80
2019-05-21T21:03:48.557Z,24.80
2019-05-21T21:06:35.238Z,24.80
2019-05-21T21:09:17.068Z,24.80
2019-05-21T21:11:57.476Z,25.20
2019-05-21T21:14:41.326Z,25.10
2019-05-21T21:17:25.856Z,25.20
2019-05-21T21:20:09.901Z,25.00
2019-05-21T21:22:54.119Z,25.00
2019-05-21T21:25:38.213Z,24.90
2019-05-21T21:28:19.563Z,24.90
2019-05-21T21:31:00.667Z,24.90
2019-05-21T21:33:45.339Z,24.90
2019-05-21T21:36:27.332Z,24.90
2019-05-21T21:39:17.462Z,24.80
2019-05-21T21:42:05.536Z,24.80
2019-05-21T21:44:51.537Z,24.80
2019-05-21T21:47:32.950Z,24.80
2019-05-21T21:50:13.727Z,24.80
2019-05-21T21:52:59.769Z,24.80
2019-05-21T21:55:42.302Z,24.80
2019-05-21T21:58:26.131Z,24.80
2019-05-21T22:01:35.159Z,24.70
2019-05-21T22:04:19.719Z,24.70
2019-05-21T22:06:58.966Z,24.70
2019-05-21T22:09:44.946Z,24.70
2019-05-21T22:12:29.744Z,24.70
2019-05-21T22:15:09.816Z,24.70
2019-05-21T22:17:51.824Z,24.70
2019-05-21T22:20:35.037Z,24.60
2019-05-21T22:23:17.062Z,24.70
2019-05-21T22:26:05.489Z,24.60
2019-05-21T22:28:46.316Z,24.60
2019-05-21T22:31:29.014Z,24.60
2019-05-21T22:34:10.317Z,24.70
2019-05-21T22:36:52.032Z,24.70
2019-05-21T22:39:35.039Z,24.60
2019-05-21T22:42:18.094Z,24.60
2019-05-21T22:45:07.965Z,24.60
2019-05-21T22:47:41.175Z,24.60
2019-05-21T22:50:21.790Z,24.60
2019-05-21T22:53:02.765Z,24.70
2019-05-21T22:55:46.660Z,24.60
2019-05-21T22:58:30.327Z,24.60
2019-05-21T23:01:14.190Z,24.70
2019-05-21T23:03:54.709Z,25.10
2019-05-21T23:06:33.784Z,25.00
2019-05-21T23:09:15.713Z,25.00
2019-05-21T23:11:58.584Z,25.00
2019-05-21T23:14:42.418Z,24.80
2019-05-21T23:17:34.923Z,24.80
2019-05-21T23:20:23.760Z,24.80
2019-05-21T23:23:05.709Z,24.70
2019-05-21T23:25:51.092Z,24.70
2019-05-21T23:28:34.418Z,24.70
2019-05-21T23:31:17.812Z,24.90
2019-05-21T23:33:58.463Z,25.00
2019-05-21T23:36:43.056Z,25.00
2019-05-21T23:39:33.453Z,25.40
2019-05-21T23:42:27.158Z,25.20
2019-05-21T23:44:58.566Z,25.10
2019-05-21T23:47:40.423Z,25.10
2019-05-21T23:50:25.124Z,25.00
2019-05-21T23:53:06.650Z,25.00
2019-05-21T23:55:48.598Z,25.10
2019-05-21T23:58:30.421Z,25.10
